sensor_id;sensor_type;location;lat;lon;timestamp;pressure;altitude;pressure_sealevel;temperature;humidity
38630;BME280;24384;51.988;4.644;2023-06-22T00:01:45;102033.78;;;18.58;89.80
38630;BME280;24384;51.988;4.644;2023-06-22T00:04:10;102043.53;;;18.59;89.92
38630;BME280;24384;51.988;4.644;2023-06-22T00:06:36;102037.34;;;18.58;89.74
38630;BME280;24384;51.988;4.644;2023-06-22T00:09:01;102038.50;;;18.53;89.52
38630;BME280;24384;51.988;4.644;2023-06-22T00:11:26;102035.56;;;18.40;89.95
38630;BME280;24384;51.988;4.644;2023-06-22T00:13:53;102038.78;;;18.28;91.26
38630;BME280;24384;51.988;4.644;2023-06-22T00:16:18;102033.81;;;18.20;91.30
38630;BME280;24384;51.988;4.644;2023-06-22T00:18:43;102030.31;;;18.18;91.70
38630;BME280;24384;51.988;4.644;2023-06-22T00:21:12;102028.75;;;18.14;91.36
38630;BME280;24384;51.988;4.644;2023-06-22T00:23:37;102027.44;;;18.22;90.37
38630;BME280;24384;51.988;4.644;2023-06-22T00:26:02;102023.00;;;18.23;90.60
38630;BME280;24384;51.988;4.644;2023-06-22T00:28:28;102029.31;;;18.20;90.57
38630;BME280;24384;51.988;4.644;2023-06-22T00:30:54;102018.50;;;18.23;90.84
38630;BME280;24384;51.988;4.644;2023-06-22T00:33:19;102006.81;;;18.26;91.07
38630;BME280;24384;51.988;4.644;2023-06-22T00:35:44;102007.53;;;18.30;91.11
38630;BME280;24384;51.988;4.644;2023-06-22T00:38:10;102009.13;;;18.34;91.12
38630;BME280;24384;51.988;4.644;2023-06-22T00:40:36;102014.91;;;18.24;90.80
38630;BME280;24384;51.988;4.644;2023-06-22T00:43:01;102006.75;;;18.28;90.88
38630;BME280;24384;51.988;4.644;2023-06-22T00:45:27;101996.56;;;18.36;90.20
38630;BME280;24384;51.988;4.644;2023-06-22T00:47:53;102002.75;;;18.36;90.45
38630;BME280;24384;51.988;4.644;2023-06-22T00:50:21;102001.19;;;18.32;90.56
38630;BME280;24384;51.988;4.644;2023-06-22T00:52:57;102004.38;;;18.21;90.90
38630;BME280;24384;51.988;4.644;2023-06-22T00:55:24;101995.25;;;18.25;90.86
38630;BME280;24384;51.988;4.644;2023-06-22T00:57:51;102003.63;;;18.18;90.86
38630;BME280;24384;51.988;4.644;2023-06-22T01:00:21;101997.56;;;18.14;90.79
38630;BME280;24384;51.988;4.644;2023-06-22T01:02:50;102000.47;;;18.10;91.08
38630;BME280;24384;51.988;4.644;2023-06-22T01:05:18;102004.88;;;18.11;90.89
38630;BME280;24384;51.988;4.644;2023-06-22T01:13:05;101996.22;;;17.85;91.97
38630;BME280;24384;51.988;4.644;2023-06-22T01:15:57;102000.84;;;17.81;92.63
38630;BME280;24384;51.988;4.644;2023-06-22T01:18:28;101991.47;;;17.92;91.85
38630;BME280;24384;51.988;4.644;2023-06-22T01:20:55;101985.06;;;17.96;92.02
38630;BME280;24384;51.988;4.644;2023-06-22T01:26:39;101990.69;;;17.89;91.67
38630;BME280;24384;51.988;4.644;2023-06-22T01:29:08;101990.28;;;17.99;91.13
38630;BME280;24384;51.988;4.644;2023-06-22T01:31:38;101995.91;;;17.93;91.14
38630;BME280;24384;51.988;4.644;2023-06-22T01:34:05;101990.56;;;17.93;91.45
38630;BME280;24384;51.988;4.644;2023-06-22T01:36:33;101996.97;;;17.88;91.70
38630;BME280;24384;51.988;4.644;2023-06-22T01:38:59;101994.31;;;17.87;91.75
38630;BME280;24384;51.988;4.644;2023-06-22T01:41:25;101993.25;;;17.72;92.01
38630;BME280;24384;51.988;4.644;2023-06-22T01:43:52;101995.91;;;17.51;92.69
38630;BME280;24384;51.988;4.644;2023-06-22T01:46:18;101994.84;;;17.56;92.72
38630;BME280;24384;51.988;4.644;2023-06-22T01:48:45;101993.78;;;17.60;92.65
38630;BME280;24384;51.988;4.644;2023-06-22T01:51:11;101994.72;;;17.59;93.53
38630;BME280;24384;51.988;4.644;2023-06-22T01:53:36;101987.50;;;17.61;93.68
38630;BME280;24384;51.988;4.644;2023-06-22T01:56:02;101986.50;;;17.63;93.85
38630;BME280;24384;51.988;4.644;2023-06-22T01:58:29;101985.25;;;17.72;93.22
38630;BME280;24384;51.988;4.644;2023-06-22T02:01:09;101990.97;;;17.63;92.60
38630;BME280;24384;51.988;4.644;2023-06-22T02:03:41;101975.13;;;17.60;92.75
38630;BME280;24384;51.988;4.644;2023-06-22T02:06:15;101989.25;;;17.62;93.33
38630;BME280;24384;51.988;4.644;2023-06-22T02:08:47;101979.44;;;17.62;93.55
38630;BME280;24384;51.988;4.644;2023-06-22T02:11:15;101977.78;;;17.60;94.18
38630;BME280;24384;51.988;4.644;2023-06-22T02:13:41;101984.56;;;17.67;93.60
38630;BME280;24384;51.988;4.644;2023-06-22T02:16:10;101985.50;;;17.66;93.96
38630;BME280;24384;51.988;4.644;2023-06-22T02:18:36;101980.31;;;17.63;93.55
38630;BME280;24384;51.988;4.644;2023-06-22T02:21:02;101980.59;;;17.57;93.94
38630;BME280;24384;51.988;4.644;2023-06-22T02:23:27;101981.25;;;17.62;93.30
38630;BME280;24384;51.988;4.644;2023-06-22T02:25:53;101979.69;;;17.56;94.02
38630;BME280;24384;51.988;4.644;2023-06-22T02:28:18;101974.38;;;17.56;94.09
38630;BME280;24384;51.988;4.644;2023-06-22T02:30:43;101973.88;;;17.67;93.50
38630;BME280;24384;51.988;4.644;2023-06-22T02:33:09;101960.31;;;17.52;94.05
38630;BME280;24384;51.988;4.644;2023-06-22T02:35:34;101960.09;;;17.57;93.71
38630;BME280;24384;51.988;4.644;2023-06-22T02:38:01;101964.59;;;17.57;93.58
38630;BME280;24384;51.988;4.644;2023-06-22T02:40:28;101965.38;;;17.59;93.24
38630;BME280;24384;51.988;4.644;2023-06-22T02:42:54;101965.56;;;17.54;93.81
38630;BME280;24384;51.988;4.644;2023-06-22T02:45:20;101961.63;;;17.42;93.61
38630;BME280;24384;51.988;4.644;2023-06-22T02:47:45;101970.25;;;17.49;93.29
38630;BME280;24384;51.988;4.644;2023-06-22T02:50:10;101961.00;;;17.37;93.93
38630;BME280;24384;51.988;4.644;2023-06-22T02:52:35;101969.78;;;17.39;94.01
38630;BME280;24384;51.988;4.644;2023-06-22T02:55:01;101974.19;;;17.40;93.68
38630;BME280;24384;51.988;4.644;2023-06-22T02:57:26;101975.50;;;17.30;93.07
38630;BME280;24384;51.988;4.644;2023-06-22T02:59:51;101982.97;;;17.01;92.73
38630;BME280;24384;51.988;4.644;2023-06-22T03:02:17;101986.81;;;16.94;92.31
38630;BME280;24384;51.988;4.644;2023-06-22T03:04:42;101978.38;;;16.82;93.72
38630;BME280;24384;51.988;4.644;2023-06-22T03:07:08;101983.72;;;16.82;94.31
38630;BME280;24384;51.988;4.644;2023-06-22T03:09:33;101990.19;;;16.97;93.89
38630;BME280;24384;51.988;4.644;2023-06-22T03:11:58;101994.19;;;16.87;95.23
38630;BME280;24384;51.988;4.644;2023-06-22T03:14:24;101988.91;;;16.86;94.74
38630;BME280;24384;51.988;4.644;2023-06-22T03:16:49;101971.69;;;16.94;94.31
38630;BME280;24384;51.988;4.644;2023-06-22T03:19:14;101969.97;;;16.93;94.83
38630;BME280;24384;51.988;4.644;2023-06-22T03:21:40;101957.44;;;16.95;95.16
38630;BME280;24384;51.988;4.644;2023-06-22T03:24:06;101958.16;;;16.99;95.53
38630;BME280;24384;51.988;4.644;2023-06-22T03:26:32;101950.03;;;17.02;95.46
38630;BME280;24384;51.988;4.644;2023-06-22T03:28:57;101950.72;;;17.07;95.27
38630;BME280;24384;51.988;4.644;2023-06-22T03:31:23;101955.81;;;17.13;96.03
38630;BME280;24384;51.988;4.644;2023-06-22T03:33:49;101951.44;;;17.11;96.24
38630;BME280;24384;51.988;4.644;2023-06-22T03:36:15;101950.72;;;17.07;96.26
38630;BME280;24384;51.988;4.644;2023-06-22T03:38:44;101954.31;;;17.06;96.65
38630;BME280;24384;51.988;4.644;2023-06-22T03:41:10;101941.91;;;17.05;96.94
38630;BME280;24384;51.988;4.644;2023-06-22T03:43:35;101943.41;;;17.12;96.02
38630;BME280;24384;51.988;4.644;2023-06-22T03:46:00;101943.59;;;17.08;96.59
38630;BME280;24384;51.988;4.644;2023-06-22T03:48:25;101937.22;;;17.12;97.01
38630;BME280;24384;51.988;4.644;2023-06-22T03:50:51;101933.00;;;17.06;96.40
38630;BME280;24384;51.988;4.644;2023-06-22T03:53:16;101928.44;;;17.08;95.76
38630;BME280;24384;51.988;4.644;2023-06-22T03:55:52;101930.00;;;17.14;96.56
38630;BME280;24384;51.988;4.644;2023-06-22T03:58:18;101936.59;;;17.05;95.36
38630;BME280;24384;51.988;4.644;2023-06-22T04:00:45;101932.88;;;17.09;95.13
38630;BME280;24384;51.988;4.644;2023-06-22T04:03:10;101934.75;;;17.07;95.88
38630;BME280;24384;51.988;4.644;2023-06-22T04:05:38;101929.94;;;17.15;95.99
38630;BME280;24384;51.988;4.644;2023-06-22T04:08:04;101927.84;;;17.22;97.08
38630;BME280;24384;51.988;4.644;2023-06-22T04:10:29;101923.06;;;17.30;97.43
38630;BME280;24384;51.988;4.644;2023-06-22T04:12:54;101922.53;;;17.43;97.01
38630;BME280;24384;51.988;4.644;2023-06-22T04:15:19;101935.72;;;17.46;97.10
38630;BME280;24384;51.988;4.644;2023-06-22T04:17:45;101928.44;;;17.49;96.65
38630;BME280;24384;51.988;4.644;2023-06-22T04:20:10;101921.63;;;17.63;96.56
38630;BME280;24384;51.988;4.644;2023-06-22T04:22:35;101925.00;;;17.66;96.51
38630;BME280;24384;51.988;4.644;2023-06-22T04:25:01;101931.59;;;17.78;96.35
38630;BME280;24384;51.988;4.644;2023-06-22T04:27:26;101936.41;;;17.91;95.87
38630;BME280;24384;51.988;4.644;2023-06-22T04:29:51;101931.56;;;17.99;95.68
38630;BME280;24384;51.988;4.644;2023-06-22T04:32:18;101935.09;;;17.99;94.99
38630;BME280;24384;51.988;4.644;2023-06-22T04:34:43;101934.00;;;18.03;95.72
38630;BME280;24384;51.988;4.644;2023-06-22T04:37:09;101941.16;;;18.22;94.78
38630;BME280;24384;51.988;4.644;2023-06-22T04:39:34;101935.22;;;18.34;94.33
38630;BME280;24384;51.988;4.644;2023-06-22T04:41:59;101941.41;;;18.35;94.64
38630;BME280;24384;51.988;4.644;2023-06-22T04:44:26;101931.00;;;18.48;94.59
38630;BME280;24384;51.988;4.644;2023-06-22T04:46:57;101933.22;;;18.57;94.34
38630;BME280;24384;51.988;4.644;2023-06-22T04:49:28;101942.50;;;18.67;94.28
38630;BME280;24384;51.988;4.644;2023-06-22T04:52:05;101941.81;;;18.81;94.04
38630;BME280;24384;51.988;4.644;2023-06-22T04:54:31;101941.22;;;18.93;94.01
38630;BME280;24384;51.988;4.644;2023-06-22T04:57:03;101934.63;;;19.01;93.75
38630;BME280;24384;51.988;4.644;2023-06-22T04:59:29;101936.22;;;19.05;92.65
38630;BME280;24384;51.988;4.644;2023-06-22T05:01:59;101935.09;;;19.09;92.82
38630;BME280;24384;51.988;4.644;2023-06-22T05:04:26;101935.00;;;19.10;92.90
38630;BME280;24384;51.988;4.644;2023-06-22T05:06:53;101946.75;;;19.08;92.52
38630;BME280;24384;51.988;4.644;2023-06-22T05:09:20;101941.78;;;19.18;91.74
38630;BME280;24384;51.988;4.644;2023-06-22T05:11:46;101940.44;;;19.26;91.63
38630;BME280;24384;51.988;4.644;2023-06-22T05:14:11;101938.63;;;19.27;92.09
38630;BME280;24384;51.988;4.644;2023-06-22T05:16:37;101941.19;;;19.46;91.26
38630;BME280;24384;51.988;4.644;2023-06-22T05:19:03;101942.25;;;19.59;90.96
38630;BME280;24384;51.988;4.644;2023-06-22T05:21:29;101936.09;;;19.75;89.94
38630;BME280;24384;51.988;4.644;2023-06-22T05:23:56;101942.53;;;19.88;90.17
38630;BME280;24384;51.988;4.644;2023-06-22T05:26:26;101938.94;;;20.05;89.78
38630;BME280;24384;51.988;4.644;2023-06-22T05:28:52;101929.69;;;20.27;89.82
38630;BME280;24384;51.988;4.644;2023-06-22T05:31:18;101932.53;;;20.39;90.31
38630;BME280;24384;51.988;4.644;2023-06-22T05:33:48;101936.91;;;20.56;88.90
38630;BME280;24384;51.988;4.644;2023-06-22T05:36:14;101943.59;;;20.65;88.29
38630;BME280;24384;51.988;4.644;2023-06-22T05:38:40;101938.13;;;20.67;88.45
38630;BME280;24384;51.988;4.644;2023-06-22T05:41:06;101932.50;;;20.71;88.32
38630;BME280;24384;51.988;4.644;2023-06-22T05:43:32;101934.13;;;20.74;88.88
38630;BME280;24384;51.988;4.644;2023-06-22T05:45:59;101933.41;;;20.86;88.71
38630;BME280;24384;51.988;4.644;2023-06-22T05:48:24;101930.53;;;20.89;87.91
38630;BME280;24384;51.988;4.644;2023-06-22T05:50:49;101935.44;;;20.97;87.95
38630;BME280;24384;51.988;4.644;2023-06-22T05:53:15;101931.84;;;21.13;87.87
38630;BME280;24384;51.988;4.644;2023-06-22T05:55:40;101933.38;;;21.17;85.99
38630;BME280;24384;51.988;4.644;2023-06-22T05:58:06;101936.56;;;21.23;84.52
38630;BME280;24384;51.988;4.644;2023-06-22T06:00:31;101934.81;;;21.22;85.21
38630;BME280;24384;51.988;4.644;2023-06-22T06:02:56;101939.81;;;21.28;86.00
38630;BME280;24384;51.988;4.644;2023-06-22T06:05:22;101936.28;;;21.28;85.21
38630;BME280;24384;51.988;4.644;2023-06-22T06:07:49;101934.16;;;21.19;83.95
38630;BME280;24384;51.988;4.644;2023-06-22T06:10:14;101927.13;;;21.16;83.85
38630;BME280;24384;51.988;4.644;2023-06-22T06:12:40;101927.41;;;21.11;83.97
38630;BME280;24384;51.988;4.644;2023-06-22T06:15:05;101933.47;;;21.15;84.28
38630;BME280;24384;51.988;4.644;2023-06-22T06:17:31;101930.72;;;21.17;84.42
38630;BME280;24384;51.988;4.644;2023-06-22T06:19:56;101926.47;;;21.13;84.97
38630;BME280;24384;51.988;4.644;2023-06-22T06:22:21;101931.66;;;21.16;85.12
38630;BME280;24384;51.988;4.644;2023-06-22T06:24:49;101929.72;;;21.18;84.82
38630;BME280;24384;51.988;4.644;2023-06-22T06:27:14;101931.19;;;21.23;84.28
38630;BME280;24384;51.988;4.644;2023-06-22T06:29:40;101928.97;;;21.30;84.10
38630;BME280;24384;51.988;4.644;2023-06-22T06:32:05;101927.75;;;21.36;83.90
38630;BME280;24384;51.988;4.644;2023-06-22T06:34:31;101914.91;;;21.41;83.90
38630;BME280;24384;51.988;4.644;2023-06-22T06:36:56;101919.03;;;21.46;83.69
38630;BME280;24384;51.988;4.644;2023-06-22T06:39:21;101919.34;;;21.56;83.38
38630;BME280;24384;51.988;4.644;2023-06-22T06:41:46;101914.38;;;21.64;83.15
38630;BME280;24384;51.988;4.644;2023-06-22T06:44:12;101915.41;;;21.76;81.34
38630;BME280;24384;51.988;4.644;2023-06-22T06:46:37;101920.00;;;21.89;81.12
38630;BME280;24384;51.988;4.644;2023-06-22T06:49:03;101916.63;;;21.99;80.80
38630;BME280;24384;51.988;4.644;2023-06-22T06:51:28;101909.69;;;22.10;79.45
38630;BME280;24384;51.988;4.644;2023-06-22T06:53:53;101914.38;;;22.21;77.37
38630;BME280;24384;51.988;4.644;2023-06-22T06:56:19;101915.22;;;22.21;78.14
38630;BME280;24384;51.988;4.644;2023-06-22T06:58:44;101913.13;;;22.26;78.53
38630;BME280;24384;51.988;4.644;2023-06-22T07:01:11;101902.16;;;22.29;77.47
38630;BME280;24384;51.988;4.644;2023-06-22T07:03:37;101896.44;;;22.35;75.73
38630;BME280;24384;51.988;4.644;2023-06-22T07:06:02;101894.50;;;22.38;76.38
38630;BME280;24384;51.988;4.644;2023-06-22T07:08:27;101902.28;;;22.55;76.65
38630;BME280;24384;51.988;4.644;2023-06-22T07:10:53;101898.44;;;22.72;76.17
38630;BME280;24384;51.988;4.644;2023-06-22T07:13:19;101900.44;;;22.96;75.76
38630;BME280;24384;51.988;4.644;2023-06-22T07:15:44;101884.78;;;23.28;72.97
38630;BME280;24384;51.988;4.644;2023-06-22T07:18:11;101892.41;;;23.47;72.84
38630;BME280;24384;51.988;4.644;2023-06-22T07:20:36;101884.06;;;23.63;71.60
38630;BME280;24384;51.988;4.644;2023-06-22T07:23:01;101877.03;;;23.86;71.39
38630;BME280;24384;51.988;4.644;2023-06-22T07:25:27;101875.63;;;23.93;69.52
38630;BME280;24384;51.988;4.644;2023-06-22T07:28:01;101879.09;;;24.20;67.85
38630;BME280;24384;51.988;4.644;2023-06-22T07:30:27;101878.22;;;24.43;67.18
38630;BME280;24384;51.988;4.644;2023-06-22T07:32:52;101876.44;;;24.55;66.64
38630;BME280;24384;51.988;4.644;2023-06-22T07:35:18;101879.66;;;24.60;66.41
38630;BME280;24384;51.988;4.644;2023-06-22T07:37:43;101875.06;;;24.74;65.88
38630;BME280;24384;51.988;4.644;2023-06-22T07:40:09;101870.38;;;24.76;64.25
38630;BME280;24384;51.988;4.644;2023-06-22T07:42:34;101873.88;;;24.89;64.98
38630;BME280;24384;51.988;4.644;2023-06-22T07:45:00;101861.00;;;24.93;65.26
38630;BME280;24384;51.988;4.644;2023-06-22T07:47:25;101867.16;;;25.06;64.69
38630;BME280;24384;51.988;4.644;2023-06-22T07:49:53;101877.34;;;25.14;63.54
38630;BME280;24384;51.988;4.644;2023-06-22T07:52:20;101874.88;;;25.22;65.75
38630;BME280;24384;51.988;4.644;2023-06-22T07:54:46;101862.75;;;25.28;66.87
38630;BME280;24384;51.988;4.644;2023-06-22T07:57:11;101864.50;;;25.29;65.32
38630;BME280;24384;51.988;4.644;2023-06-22T07:59:36;101858.44;;;25.25;63.53
38630;BME280;24384;51.988;4.644;2023-06-22T08:02:02;101854.16;;;25.11;64.56
38630;BME280;24384;51.988;4.644;2023-06-22T08:04:29;101858.69;;;25.22;62.33
38630;BME280;24384;51.988;4.644;2023-06-22T08:06:56;101850.09;;;25.06;61.58
38630;BME280;24384;51.988;4.644;2023-06-22T08:09:22;101844.72;;;25.17;63.83
38630;BME280;24384;51.988;4.644;2023-06-22T08:11:47;101841.28;;;25.15;63.36
38630;BME280;24384;51.988;4.644;2023-06-22T08:14:14;101840.81;;;25.32;63.76
38630;BME280;24384;51.988;4.644;2023-06-22T08:16:39;101839.91;;;25.20;66.56
38630;BME280;24384;51.988;4.644;2023-06-22T08:19:04;101837.81;;;25.01;66.61
38630;BME280;24384;51.988;4.644;2023-06-22T08:21:30;101832.66;;;25.10;64.71
38630;BME280;24384;51.988;4.644;2023-06-22T08:23:55;101846.94;;;25.12;65.30
38630;BME280;24384;51.988;4.644;2023-06-22T08:26:20;101832.72;;;25.44;66.52
38630;BME280;24384;51.988;4.644;2023-06-22T08:28:46;101840.28;;;25.72;67.24
38630;BME280;24384;51.988;4.644;2023-06-22T08:31:12;101833.63;;;25.99;64.88
38630;BME280;24384;51.988;4.644;2023-06-22T08:33:39;101833.16;;;26.26;67.68
38630;BME280;24384;51.988;4.644;2023-06-22T08:36:04;101827.34;;;26.31;65.73
38630;BME280;24384;51.988;4.644;2023-06-22T08:38:31;101823.31;;;26.04;65.76
38630;BME280;24384;51.988;4.644;2023-06-22T08:40:56;101821.38;;;26.16;64.18
38630;BME280;24384;51.988;4.644;2023-06-22T08:43:22;101822.72;;;26.43;63.59
38630;BME280;24384;51.988;4.644;2023-06-22T08:45:47;101814.75;;;26.62;64.62
38630;BME280;24384;51.988;4.644;2023-06-22T08:48:12;101814.97;;;26.71;63.36
38630;BME280;24384;51.988;4.644;2023-06-22T08:50:37;101831.25;;;26.38;63.25
38630;BME280;24384;51.988;4.644;2023-06-22T08:53:05;101824.00;;;26.39;64.19
38630;BME280;24384;51.988;4.644;2023-06-22T08:55:30;101824.25;;;26.36;64.44
38630;BME280;24384;51.988;4.644;2023-06-22T08:57:56;101820.34;;;26.07;65.29
38630;BME280;24384;51.988;4.644;2023-06-22T09:00:21;101820.84;;;26.01;64.89
38630;BME280;24384;51.988;4.644;2023-06-22T09:02:47;101823.31;;;25.82;64.25
38630;BME280;24384;51.988;4.644;2023-06-22T09:05:13;101807.13;;;25.82;64.38
38630;BME280;24384;51.988;4.644;2023-06-22T09:07:38;101816.19;;;25.81;64.52
38630;BME280;24384;51.988;4.644;2023-06-22T09:10:04;101810.06;;;25.79;66.28
38630;BME280;24384;51.988;4.644;2023-06-22T09:12:30;101826.50;;;25.87;66.53
38630;BME280;24384;51.988;4.644;2023-06-22T09:14:55;101808.19;;;25.90;66.17
38630;BME280;24384;51.988;4.644;2023-06-22T09:17:21;101806.97;;;25.83;64.33
38630;BME280;24384;51.988;4.644;2023-06-22T09:19:47;101800.22;;;25.89;63.85
38630;BME280;24384;51.988;4.644;2023-06-22T09:22:12;101801.53;;;25.95;64.81
38630;BME280;24384;51.988;4.644;2023-06-22T09:24:37;101808.66;;;25.96;64.35
38630;BME280;24384;51.988;4.644;2023-06-22T09:27:03;101804.63;;;25.90;64.57
38630;BME280;24384;51.988;4.644;2023-06-22T09:29:28;101817.06;;;25.81;65.41
38630;BME280;24384;51.988;4.644;2023-06-22T09:31:53;101801.72;;;25.82;65.56
38630;BME280;24384;51.988;4.644;2023-06-22T09:34:21;101806.84;;;25.85;63.20
38630;BME280;24384;51.988;4.644;2023-06-22T09:36:46;101803.91;;;25.88;62.06
38630;BME280;24384;51.988;4.644;2023-06-22T09:39:12;101804.00;;;25.98;61.86
38630;BME280;24384;51.988;4.644;2023-06-22T09:41:37;101798.69;;;25.96;61.26
38630;BME280;24384;51.988;4.644;2023-06-22T09:44:02;101797.16;;;25.82;61.99
38630;BME280;24384;51.988;4.644;2023-06-22T09:46:28;101793.78;;;25.58;64.13
38630;BME280;24384;51.988;4.644;2023-06-22T09:48:53;101791.44;;;25.64;61.25
38630;BME280;24384;51.988;4.644;2023-06-22T09:51:19;101792.63;;;25.71;63.41
38630;BME280;24384;51.988;4.644;2023-06-22T09:53:46;101791.81;;;25.48;63.05
38630;BME280;24384;51.988;4.644;2023-06-22T09:56:12;101782.16;;;25.12;63.73
38630;BME280;24384;51.988;4.644;2023-06-22T09:58:43;101786.56;;;24.90;64.96
38630;BME280;24384;51.988;4.644;2023-06-22T10:01:09;101783.50;;;25.06;64.30
38630;BME280;24384;51.988;4.644;2023-06-22T10:03:35;101789.00;;;25.16;63.98
38630;BME280;24384;51.988;4.644;2023-06-22T10:06:00;101780.66;;;25.19;63.08
38630;BME280;24384;51.988;4.644;2023-06-22T10:08:25;101787.28;;;25.26;62.91
38630;BME280;24384;51.988;4.644;2023-06-22T10:10:51;101791.34;;;25.09;64.00
38630;BME280;24384;51.988;4.644;2023-06-22T10:13:16;101786.31;;;25.05;62.97
38630;BME280;24384;51.988;4.644;2023-06-22T10:15:41;101787.81;;;25.09;65.22
38630;BME280;24384;51.988;4.644;2023-06-22T10:18:06;101781.41;;;25.10;65.72
38630;BME280;24384;51.988;4.644;2023-06-22T10:20:32;101791.34;;;24.98;64.41
38630;BME280;24384;51.988;4.644;2023-06-22T10:22:57;101791.44;;;24.85;63.69
38630;BME280;24384;51.988;4.644;2023-06-22T10:25:22;101787.53;;;24.89;64.11
38630;BME280;24384;51.988;4.644;2023-06-22T10:27:48;101788.91;;;24.95;65.17
38630;BME280;24384;51.988;4.644;2023-06-22T10:30:14;101790.72;;;24.94;65.56
38630;BME280;24384;51.988;4.644;2023-06-22T10:32:40;101788.75;;;24.85;67.57
38630;BME280;24384;51.988;4.644;2023-06-22T10:35:06;101791.97;;;24.90;67.48
38630;BME280;24384;51.988;4.644;2023-06-22T10:37:32;101796.13;;;24.94;70.88
38630;BME280;24384;51.988;4.644;2023-06-22T10:39:57;101799.41;;;24.87;69.05
38630;BME280;24384;51.988;4.644;2023-06-22T10:42:22;101795.88;;;24.75;68.61
38630;BME280;24384;51.988;4.644;2023-06-22T10:44:48;101790.72;;;24.72;67.81
38630;BME280;24384;51.988;4.644;2023-06-22T10:47:13;101796.09;;;24.72;66.75
38630;BME280;24384;51.988;4.644;2023-06-22T10:49:39;101798.28;;;24.66;68.16
38630;BME280;24384;51.988;4.644;2023-06-22T10:52:08;101795.59;;;24.66;69.68
38630;BME280;24384;51.988;4.644;2023-06-22T10:54:34;101796.09;;;24.72;70.62
38630;BME280;24384;51.988;4.644;2023-06-22T10:57:01;101803.31;;;24.71;71.63
38630;BME280;24384;51.988;4.644;2023-06-22T10:59:26;101803.69;;;24.66;70.92
38630;BME280;24384;51.988;4.644;2023-06-22T11:01:53;101806.59;;;24.63;70.18
38630;BME280;24384;51.988;4.644;2023-06-22T11:04:18;101805.53;;;24.66;70.95
38630;BME280;24384;51.988;4.644;2023-06-22T11:06:43;101799.31;;;24.53;72.58
38630;BME280;24384;51.988;4.644;2023-06-22T11:09:09;101800.78;;;24.45;72.88
38630;BME280;24384;51.988;4.644;2023-06-22T11:11:34;101796.00;;;24.49;72.95
38630;BME280;24384;51.988;4.644;2023-06-22T11:13:59;101799.19;;;24.54;71.57
38630;BME280;24384;51.988;4.644;2023-06-22T11:16:26;101796.00;;;24.49;72.20
38630;BME280;24384;51.988;4.644;2023-06-22T11:18:52;101800.69;;;24.47;72.46
38630;BME280;24384;51.988;4.644;2023-06-22T11:21:17;101798.44;;;24.41;72.42
38630;BME280;24384;51.988;4.644;2023-06-22T11:23:42;101791.56;;;24.37;73.13
38630;BME280;24384;51.988;4.644;2023-06-22T11:26:08;101789.13;;;24.45;73.65
38630;BME280;24384;51.988;4.644;2023-06-22T11:28:33;101793.28;;;24.38;73.42
38630;BME280;24384;51.988;4.644;2023-06-22T11:30:58;101795.22;;;24.36;72.65
38630;BME280;24384;51.988;4.644;2023-06-22T11:33:24;101781.25;;;24.30;73.58
38630;BME280;24384;51.988;4.644;2023-06-22T11:35:49;101791.00;;;24.20;74.33
38630;BME280;24384;51.988;4.644;2023-06-22T11:38:14;101777.28;;;24.23;73.31
38630;BME280;24384;51.988;4.644;2023-06-22T11:40:40;101772.91;;;24.22;73.88
38630;BME280;24384;51.988;4.644;2023-06-22T11:43:05;101767.97;;;24.16;74.43
38630;BME280;24384;51.988;4.644;2023-06-22T11:45:30;101752.66;;;24.17;71.89
38630;BME280;24384;51.988;4.644;2023-06-22T11:47:55;101748.31;;;24.03;72.72
38630;BME280;24384;51.988;4.644;2023-06-22T11:50:21;101753.72;;;24.03;73.80
38630;BME280;24384;51.988;4.644;2023-06-22T11:52:46;101752.78;;;23.91;75.35
38630;BME280;24384;51.988;4.644;2023-06-22T11:55:11;101751.72;;;23.93;77.31
38630;BME280;24384;51.988;4.644;2023-06-22T11:57:53;101751.59;;;23.95;76.41
38630;BME280;24384;51.988;4.644;2023-06-22T12:00:18;101740.72;;;23.97;76.92
38630;BME280;24384;51.988;4.644;2023-06-22T12:02:44;101740.31;;;23.90;77.18
38630;BME280;24384;51.988;4.644;2023-06-22T12:05:10;101725.63;;;23.94;77.74
38630;BME280;24384;51.988;4.644;2023-06-22T12:07:35;101718.31;;;23.96;76.16
38630;BME280;24384;51.988;4.644;2023-06-22T12:10:01;101722.09;;;23.93;77.34
38630;BME280;24384;51.988;4.644;2023-06-22T12:12:26;101731.78;;;23.96;77.94
38630;BME280;24384;51.988;4.644;2023-06-22T12:14:52;101723.41;;;23.88;78.20
38630;BME280;24384;51.988;4.644;2023-06-22T12:17:17;101722.44;;;23.89;79.78
38630;BME280;24384;51.988;4.644;2023-06-22T12:19:42;101720.34;;;23.92;79.78
38630;BME280;24384;51.988;4.644;2023-06-22T12:22:07;101719.50;;;23.92;80.16
38630;BME280;24384;51.988;4.644;2023-06-22T12:24:33;101712.75;;;23.86;79.83
38630;BME280;24384;51.988;4.644;2023-06-22T12:26:58;101722.97;;;23.81;80.52
38630;BME280;24384;51.988;4.644;2023-06-22T12:29:23;101708.00;;;23.77;80.84
38630;BME280;24384;51.988;4.644;2023-06-22T12:31:48;101705.66;;;23.72;81.34
38630;BME280;24384;51.988;4.644;2023-06-22T12:34:14;101701.91;;;23.75;81.60
38630;BME280;24384;51.988;4.644;2023-06-22T12:36:39;101713.13;;;23.69;81.79
38630;BME280;24384;51.988;4.644;2023-06-22T12:39:04;101708.81;;;23.66;81.81
38630;BME280;24384;51.988;4.644;2023-06-22T12:41:29;101709.81;;;23.65;82.08
38630;BME280;24384;51.988;4.644;2023-06-22T12:43:55;101712.41;;;23.67;82.00
38630;BME280;24384;51.988;4.644;2023-06-22T12:46:20;101710.06;;;23.62;83.38
38630;BME280;24384;51.988;4.644;2023-06-22T12:48:45;101706.13;;;23.66;82.49
38630;BME280;24384;51.988;4.644;2023-06-22T12:51:10;101713.59;;;23.63;82.89
38630;BME280;24384;51.988;4.644;2023-06-22T12:53:36;101714.03;;;23.56;83.12